Time;durP1;ratioP1;P1;durP2;ratioP2;P2;SDS_P1;SDS_P2;PMS_P1;PMS_P2;Temp;Humidity;BMP_temperature;BMP_pressure;BME280_temperature;BME280_humidity;BME280_pressure;Samples;Min_cycle;Max_cycle;Signal;HPM_P1;HPM_P2
2022/10/13 00:01:28;;;;;;;;;;;24.00;41.70;;;;;;491903;240;1063;-75
2022/10/13 00:03:29;;;;;;;;;;;24.00;41.60;;;;;;491817;240;1046;-74
2022/10/13 00:05:30;;;;;;;;;;;24.00;41.60;;;;;;491805;240;1076;-74
2022/10/13 00:07:32;;;;;;;;;;;23.90;41.60;;;;;;491850;240;1108;-74
2022/10/13 00:09:33;;;;;;;;;;;23.90;41.60;;;;;;491917;240;1028;-74
2022/10/13 00:11:34;;;;;;;;;;;24.00;41.60;;;;;;491821;240;1276;-74
2022/10/13 00:13:36;;;;;;;;;;;23.90;41.60;;;;;;491819;240;1144;-74
2022/10/13 00:15:37;;;;;;;;;;;24.00;41.50;;;;;;491883;240;1110;-74
2022/10/13 00:17:40;;;;;;;;;;;24.00;41.50;;;;;;491780;240;2184;-75
2022/10/13 00:19:40;;;;;;;;;;;23.90;41.40;;;;;;491811;240;1473;-75
2022/10/13 00:21:41;;;;;;;;;;;23.90;41.40;;;;;;491803;240;1185;-75
2022/10/13 00:23:42;;;;;;;;;;;23.90;41.30;;;;;;491909;240;1074;-74
2022/10/13 00:25:44;;;;;;;;;;;23.90;41.30;;;;;;491785;240;1093;-74
2022/10/13 00:27:45;;;;;;;;;;;23.90;41.40;;;;;;491841;240;1120;-74
2022/10/13 00:29:46;;;;;;;;;;;23.90;41.40;;;;;;491798;240;1086;-74
2022/10/13 00:31:48;;;;;;;;;;;23.90;41.30;;;;;;491778;240;1107;-74
2022/10/13 00:33:49;;;;;;;;;;;23.90;41.30;;;;;;491806;240;1163;-75
2022/10/13 00:35:50;;;;;;;;;;;23.90;41.20;;;;;;491836;240;1278;-75
2022/10/13 00:37:52;;;;;;;;;;;23.90;41.20;;;;;;491800;240;2184;-74
2022/10/13 00:39:54;;;;;;;;;;;23.90;41.30;;;;;;491835;240;1132;-74
2022/10/13 00:41:55;;;;;;;;;;;23.80;41.20;;;;;;491863;240;1137;-74
2022/10/13 00:43:56;;;;;;;;;;;23.80;41.20;;;;;;491899;240;1158;-75
2022/10/13 00:45:58;;;;;;;;;;;23.80;41.20;;;;;;491900;240;1133;-74
2022/10/13 00:47:59;;;;;;;;;;;23.80;41.20;;;;;;491945;240;1181;-74
2022/10/13 00:50:01;;;;;;;;;;;23.80;41.20;;;;;;491892;240;1075;-75
2022/10/13 00:52:02;;;;;;;;;;;23.80;41.10;;;;;;491808;240;1448;-74
2022/10/13 00:54:03;;;;;;;;;;;23.80;41.10;;;;;;491919;240;1163;-74
2022/10/13 00:56:04;;;;;;;;;;;23.80;41.10;;;;;;491842;240;1051;-74
2022/10/13 00:58:06;;;;;;;;;;;23.80;41.20;;;;;;491826;240;2199;-74
2022/10/13 01:00:07;;;;;;;;;;;23.80;41.20;;;;;;491813;240;1110;-74
2022/10/13 01:02:08;;;;;;;;;;;23.80;41.10;;;;;;491845;240;1242;-74
2022/10/13 01:04:10;;;;;;;;;;;23.70;41.10;;;;;;491839;240;1300;-74
2022/10/13 01:06:13;;;;;;;;;;;23.70;41.20;;;;;;491833;240;1058;-75
2022/10/13 01:08:14;;;;;;;;;;;23.70;41.20;;;;;;491887;240;1429;-75
2022/10/13 01:10:23;;;;;;;;;;;23.70;41.10;;;;;;491834;240;1131;-75
2022/10/13 01:12:16;;;;;;;;;;;23.70;41.10;;;;;;491937;240;1407;-75
2022/10/13 01:14:18;;;;;;;;;;;23.70;41.10;;;;;;491840;240;1212;-75
2022/10/13 01:16:19;;;;;;;;;;;23.70;41.10;;;;;;491846;240;1402;-75
2022/10/13 01:18:20;;;;;;;;;;;23.70;41.00;;;;;;491799;240;2184;-75
2022/10/13 01:20:22;;;;;;;;;;;23.70;41.10;;;;;;491811;240;1260;-75
2022/10/13 01:22:23;;;;;;;;;;;23.70;41.00;;;;;;491851;240;1153;-74
2022/10/13 01:24:25;;;;;;;;;;;23.70;41.00;;;;;;491876;240;1117;-75
2022/10/13 01:26:26;;;;;;;;;;;23.80;40.80;;;;;;491822;240;1199;-75
2022/10/13 01:28:27;;;;;;;;;;;23.70;40.80;;;;;;491843;240;1248;-75
2022/10/13 01:30:29;;;;;;;;;;;23.70;40.90;;;;;;491854;240;1184;-75
2022/10/13 01:32:30;;;;;;;;;;;23.70;40.80;;;;;;491827;240;1084;-75
2022/10/13 01:34:31;;;;;;;;;;;23.70;40.70;;;;;;491865;240;1076;-75
2022/10/13 01:36:33;;;;;;;;;;;23.80;40.60;;;;;;491896;240;1091;-75
2022/10/13 01:38:34;;;;;;;;;;;23.90;40.50;;;;;;491812;240;2196;-75
2022/10/13 01:40:35;;;;;;;;;;;23.80;40.40;;;;;;491802;240;1132;-75
2022/10/13 01:42:37;;;;;;;;;;;23.80;40.40;;;;;;491822;240;1053;-75
2022/10/13 01:44:38;;;;;;;;;;;23.80;40.50;;;;;;491894;240;1168;-75
2022/10/13 01:46:39;;;;;;;;;;;23.80;40.30;;;;;;491815;240;1111;-75
2022/10/13 01:48:41;;;;;;;;;;;23.80;40.30;;;;;;491853;240;1102;-74
2022/10/13 01:50:42;;;;;;;;;;;23.80;40.40;;;;;;491829;240;1180;-75
2022/10/13 01:52:43;;;;;;;;;;;23.70;40.40;;;;;;491855;240;1127;-75
2022/10/13 01:54:45;;;;;;;;;;;23.80;40.30;;;;;;491881;240;1265;-75
2022/10/13 01:56:46;;;;;;;;;;;23.80;40.30;;;;;;491858;240;1193;-75
2022/10/13 01:58:47;;;;;;;;;;;23.80;40.30;;;;;;491780;240;2184;-75
2022/10/13 02:00:49;;;;;;;;;;;23.70;40.20;;;;;;491851;240;1113;-74
2022/10/13 02:02:50;;;;;;;;;;;23.70;40.20;;;;;;491832;240;1088;-74
2022/10/13 02:04:52;;;;;;;;;;;23.70;40.20;;;;;;491861;240;1101;-75
2022/10/13 02:06:53;;;;;;;;;;;23.80;40.20;;;;;;491833;240;1279;-75
2022/10/13 02:08:54;;;;;;;;;;;23.80;40.10;;;;;;491844;240;1182;-75
2022/10/13 02:10:56;;;;;;;;;;;23.70;40.00;;;;;;491852;240;1112;-75
2022/10/13 02:12:57;;;;;;;;;;;23.70;40.00;;;;;;491872;240;1063;-75
2022/10/13 02:14:58;;;;;;;;;;;23.70;40.10;;;;;;491805;240;1208;-74
2022/10/13 02:17:00;;;;;;;;;;;23.80;40.00;;;;;;491863;240;1071;-74
2022/10/13 02:19:01;;;;;;;;;;;23.80;39.90;;;;;;491840;240;2191;-75
2022/10/13 02:21:02;;;;;;;;;;;23.70;39.90;;;;;;491826;240;1273;-75
2022/10/13 02:23:04;;;;;;;;;;;23.70;39.80;;;;;;491876;240;1165;-75
2022/10/13 02:25:05;;;;;;;;;;;23.80;39.80;;;;;;491825;240;1385;-75
2022/10/13 02:27:06;;;;;;;;;;;23.70;39.70;;;;;;491913;240;1154;-75
2022/10/13 02:29:08;;;;;;;;;;;23.70;39.70;;;;;;491841;240;1307;-75
2022/10/13 02:31:09;;;;;;;;;;;23.70;39.70;;;;;;491818;240;1224;-75
2022/10/13 02:33:11;;;;;;;;;;;23.80;39.60;;;;;;491803;240;1182;-75
2022/10/13 02:35:12;;;;;;;;;;;23.70;39.60;;;;;;491875;240;1074;-74
2022/10/13 02:37:13;;;;;;;;;;;23.80;39.50;;;;;;491845;240;1354;-74
2022/10/13 02:39:15;;;;;;;;;;;23.70;39.50;;;;;;491843;240;2167;-74
2022/10/13 02:41:16;;;;;;;;;;;23.70;39.50;;;;;;491788;240;1249;-74
2022/10/13 02:43:17;;;;;;;;;;;23.60;39.50;;;;;;491831;240;1132;-74
2022/10/13 02:45:19;;;;;;;;;;;23.70;39.60;;;;;;491791;240;1174;-75
2022/10/13 02:47:20;;;;;;;;;;;23.70;39.60;;;;;;491830;240;1257;-75
2022/10/13 02:49:21;;;;;;;;;;;23.80;39.40;;;;;;491803;240;1094;-75
2022/10/13 02:51:23;;;;;;;;;;;23.70;39.30;;;;;;491822;240;1337;-75
2022/10/13 02:53:24;;;;;;;;;;;23.80;39.40;;;;;;491811;240;1165;-75
2022/10/13 02:55:25;;;;;;;;;;;23.80;39.30;;;;;;491883;240;1137;-75
2022/10/13 02:57:27;;;;;;;;;;;23.70;39.20;;;;;;491767;240;1247;-75
2022/10/13 02:59:29;;;;;;;;;;;23.80;39.20;;;;;;491759;240;2145;-75
2022/10/13 03:01:29;;;;;;;;;;;23.90;39.20;;;;;;491933;240;1487;-75
2022/10/13 03:03:31;;;;;;;;;;;23.80;39.30;;;;;;491833;240;1223;-75
2022/10/13 03:05:32;;;;;;;;;;;23.70;39.20;;;;;;491836;240;1196;-75
2022/10/13 03:07:33;;;;;;;;;;;23.70;39.50;;;;;;491915;240;1186;-74
2022/10/13 03:09:35;;;;;;;;;;;23.80;39.40;;;;;;491831;240;1183;-75
2022/10/13 03:11:36;;;;;;;;;;;23.80;39.30;;;;;;491882;240;1292;-75
2022/10/13 03:13:37;;;;;;;;;;;23.90;39.30;;;;;;491879;240;1156;-75
2022/10/13 03:15:39;;;;;;;;;;;23.90;39.20;;;;;;491869;240;1174;-74
2022/10/13 03:17:40;;;;;;;;;;;24.00;39.20;;;;;;491961;240;1164;-75
2022/10/13 03:19:42;;;;;;;;;;;24.00;39.20;;;;;;491847;240;2199;-75
2022/10/13 03:21:43;;;;;;;;;;;24.00;39.20;;;;;;491860;240;1121;-75
2022/10/13 03:23:44;;;;;;;;;;;24.00;39.20;;;;;;491922;240;1180;-74
2022/10/13 03:25:46;;;;;;;;;;;24.00;39.20;;;;;;491911;240;1096;-75
2022/10/13 03:27:47;;;;;;;;;;;24.10;39.00;;;;;;491873;240;1183;-75
2022/10/13 03:29:48;;;;;;;;;;;24.10;39.10;;;;;;491879;240;1128;-74
2022/10/13 03:31:50;;;;;;;;;;;24.10;39.20;;;;;;491860;240;1125;-74
2022/10/13 03:33:51;;;;;;;;;;;24.10;39.10;;;;;;491919;240;1222;-74
2022/10/13 03:35:52;;;;;;;;;;;24.00;39.10;;;;;;491889;240;1084;-74
2022/10/13 03:37:54;;;;;;;;;;;24.10;39.10;;;;;;491894;240;1153;-75
2022/10/13 03:39:55;;;;;;;;;;;24.10;39.00;;;;;;491887;240;2200;-74
2022/10/13 03:41:56;;;;;;;;;;;24.20;38.80;;;;;;491846;240;1182;-74
2022/10/13 03:43:58;;;;;;;;;;;24.20;38.80;;;;;;491861;240;1079;-74
2022/10/13 03:45:59;;;;;;;;;;;24.30;38.70;;;;;;491918;240;1183;-74
2022/10/13 03:48:00;;;;;;;;;;;24.30;38.40;;;;;;491898;240;1077;-75
2022/10/13 03:50:02;;;;;;;;;;;24.30;38.40;;;;;;491985;240;1075;-75
2022/10/13 03:52:03;;;;;;;;;;;24.20;38.60;;;;;;491798;240;1106;-74
2022/10/13 03:54:04;;;;;;;;;;;24.10;38.70;;;;;;491843;240;1147;-74
2022/10/13 03:56:06;;;;;;;;;;;24.10;38.80;;;;;;491827;240;1175;-75
2022/10/13 03:58:07;;;;;;;;;;;24.00;38.80;;;;;;491830;240;1317;-75
2022/10/13 04:00:09;;;;;;;;;;;24.00;38.80;;;;;;491775;240;2189;-75
2022/10/13 04:02:10;;;;;;;;;;;24.10;38.80;;;;;;491889;240;1208;-74
2022/10/13 04:04:11;;;;;;;;;;;24.10;38.80;;;;;;491851;240;1266;-74
2022/10/13 04:06:13;;;;;;;;;;;24.10;38.90;;;;;;491860;240;1183;-75
2022/10/13 04:08:14;;;;;;;;;;;24.00;38.90;;;;;;491727;240;1137;-75
2022/10/13 04:10:15;;;;;;;;;;;24.00;39.00;;;;;;491729;240;1200;-75
2022/10/13 04:12:17;;;;;;;;;;;24.00;39.10;;;;;;491817;240;1188;-75
2022/10/13 04:14:18;;;;;;;;;;;23.90;39.10;;;;;;491761;240;1079;-75
2022/10/13 04:16:19;;;;;;;;;;;23.90;39.10;;;;;;491707;240;1284;-75
2022/10/13 04:18:21;;;;;;;;;;;23.90;39.10;;;;;;491820;240;1117;-75
2022/10/13 04:20:22;;;;;;;;;;;23.90;39.20;;;;;;491706;240;2211;-75
2022/10/13 04:22:23;;;;;;;;;;;23.90;39.30;;;;;;491768;240;1010;-75
2022/10/13 04:24:25;;;;;;;;;;;23.80;39.30;;;;;;491757;240;1027;-75
2022/10/13 04:26:26;;;;;;;;;;;23.80;39.20;;;;;;491741;240;1054;-75
2022/10/13 04:28:27;;;;;;;;;;;23.80;39.30;;;;;;491775;240;1080;-75
2022/10/13 04:30:29;;;;;;;;;;;23.80;39.40;;;;;;491718;240;1105;-75
2022/10/13 04:32:30;;;;;;;;;;;23.80;39.40;;;;;;491691;240;1002;-75
2022/10/13 04:34:31;;;;;;;;;;;23.70;39.40;;;;;;491893;240;1150;-75
2022/10/13 04:36:33;;;;;;;;;;;23.70;39.40;;;;;;491790;240;1257;-75
2022/10/13 04:38:34;;;;;;;;;;;23.70;39.40;;;;;;491723;240;1070;-75
2022/10/13 04:40:35;;;;;;;;;;;23.70;39.40;;;;;;491816;240;2180;-75
2022/10/13 04:42:37;;;;;;;;;;;23.70;39.40;;;;;;491742;240;1362;-75
2022/10/13 04:44:38;;;;;;;;;;;23.60;39.60;;;;;;491731;240;1308;-75
2022/10/13 04:46:39;;;;;;;;;;;23.60;39.70;;;;;;491691;240;1183;-75
2022/10/13 04:48:41;;;;;;;;;;;23.70;39.70;;;;;;491753;240;1185;-75
2022/10/13 04:50:42;;;;;;;;;;;23.70;39.70;;;;;;491836;240;1177;-75
2022/10/13 04:52:43;;;;;;;;;;;23.80;39.50;;;;;;491590;240;1175;-75
2022/10/13 04:54:45;;;;;;;;;;;23.90;39.40;;;;;;491781;240;1179;-75
2022/10/13 04:56:46;;;;;;;;;;;23.90;39.30;;;;;;491750;240;1093;-75
2022/10/13 04:58:47;;;;;;;;;;;24.00;39.30;;;;;;491703;240;1245;-75
2022/10/13 05:00:49;;;;;;;;;;;24.00;39.20;;;;;;491619;240;2195;-74
2022/10/13 05:02:50;;;;;;;;;;;24.00;39.30;;;;;;491744;240;1150;-74
2022/10/13 05:04:51;;;;;;;;;;;24.10;39.10;;;;;;491637;240;1174;-75
2022/10/13 05:06:53;;;;;;;;;;;24.20;39.10;;;;;;491699;240;1160;-75
2022/10/13 05:08:54;;;;;;;;;;;24.20;39.20;;;;;;491620;240;1187;-75
2022/10/13 05:10:55;;;;;;;;;;;24.10;39.30;;;;;;491570;240;1151;-75
2022/10/13 05:12:57;;;;;;;;;;;24.20;39.30;;;;;;491677;240;1121;-75
2022/10/13 05:14:58;;;;;;;;;;;24.20;39.30;;;;;;491560;240;1114;-75
2022/10/13 05:16:59;;;;;;;;;;;24.20;39.30;;;;;;491563;240;1186;-75
2022/10/13 05:19:01;;;;;;;;;;;24.20;39.40;;;;;;491626;240;1094;-75
2022/10/13 05:21:02;;;;;;;;;;;24.30;39.40;;;;;;491719;240;2187;-75
2022/10/13 05:23:04;;;;;;;;;;;24.30;39.40;;;;;;491760;240;1115;-75
2022/10/13 05:25:05;;;;;;;;;;;24.20;39.40;;;;;;491711;240;1077;-75
2022/10/13 05:27:07;;;;;;;;;;;24.30;39.40;;;;;;491695;240;1098;-75
2022/10/13 05:29:08;;;;;;;;;;;24.30;39.40;;;;;;491689;240;1022;-75
2022/10/13 05:31:09;;;;;;;;;;;24.30;39.30;;;;;;491608;240;1123;-74
2022/10/13 05:33:11;;;;;;;;;;;24.40;39.30;;;;;;491634;240;1103;-74
2022/10/13 05:35:12;;;;;;;;;;;24.40;39.30;;;;;;491712;240;1190;-75
2022/10/13 05:37:15;;;;;;;;;;;24.30;39.30;;;;;;491587;240;1227;-75
2022/10/13 05:39:17;;;;;;;;;;;24.20;39.40;;;;;;491495;240;1134;-75
2022/10/13 05:41:18;;;;;;;;;;;24.30;39.50;;;;;;491313;240;2184;-75
2022/10/13 05:43:19;;;;;;;;;;;24.30;39.50;;;;;;491466;240;1141;-75
2022/10/13 05:45:21;;;;;;;;;;;24.30;39.50;;;;;;491590;240;1141;-75
2022/10/13 05:47:26;;;;;;;;;;;24.30;39.40;;;;;;491420;240;1038;-75
2022/10/13 05:49:23;;;;;;;;;;;24.30;39.50;;;;;;491681;240;1377;-74
2022/10/13 05:51:25;;;;;;;;;;;24.30;39.50;;;;;;491355;240;1177;-74
2022/10/13 05:53:26;;;;;;;;;;;24.40;39.30;;;;;;491483;240;1167;-74
2022/10/13 05:55:27;;;;;;;;;;;24.30;39.40;;;;;;491589;240;1181;-74
2022/10/13 05:57:29;;;;;;;;;;;24.20;39.60;;;;;;491776;240;1178;-74
2022/10/13 05:59:30;;;;;;;;;;;24.20;39.60;;;;;;491493;240;2164;-74
2022/10/13 06:01:31;;;;;;;;;;;24.20;39.70;;;;;;491525;240;1185;-75
2022/10/13 06:03:33;;;;;;;;;;;24.10;39.80;;;;;;491617;240;1203;-75
2022/10/13 06:05:34;;;;;;;;;;;24.10;39.90;;;;;;491603;240;1317;-74
2022/10/13 06:07:36;;;;;;;;;;;24.10;40.00;;;;;;491524;240;1137;-74
2022/10/13 06:09:37;;;;;;;;;;;24.00;40.10;;;;;;491521;240;1185;-74
2022/10/13 06:11:38;;;;;;;;;;;24.00;40.10;;;;;;491483;240;1345;-74
2022/10/13 06:13:40;;;;;;;;;;;23.90;40.20;;;;;;491578;240;1201;-75
2022/10/13 06:15:41;;;;;;;;;;;23.90;40.40;;;;;;491444;240;1194;-75
2022/10/13 06:17:42;;;;;;;;;;;23.90;40.60;;;;;;491454;240;1322;-74
2022/10/13 06:19:44;;;;;;;;;;;23.80;40.70;;;;;;491462;240;2204;-74
2022/10/13 06:21:46;;;;;;;;;;;23.80;40.60;;;;;;491504;240;1129;-74
2022/10/13 06:23:47;;;;;;;;;;;23.70;40.60;;;;;;491476;240;1099;-75
2022/10/13 06:25:48;;;;;;;;;;;23.70;40.80;;;;;;491475;240;1083;-75
2022/10/13 06:27:49;;;;;;;;;;;23.70;40.80;;;;;;491489;240;1168;-75
2022/10/13 06:29:51;;;;;;;;;;;23.80;40.80;;;;;;491411;240;1057;-74
2022/10/13 06:31:52;;;;;;;;;;;23.80;40.80;;;;;;491583;240;1103;-74
2022/10/13 06:33:53;;;;;;;;;;;23.70;41.10;;;;;;491395;240;1114;-74
2022/10/13 06:35:55;;;;;;;;;;;23.80;41.00;;;;;;491522;240;1144;-75
2022/10/13 06:37:56;;;;;;;;;;;23.80;40.90;;;;;;491470;240;1077;-75
2022/10/13 06:39:57;;;;;;;;;;;23.90;40.80;;;;;;491308;240;2211;-75
2022/10/13 06:41:59;;;;;;;;;;;23.90;40.80;;;;;;491499;240;1174;-75
2022/10/13 06:44:00;;;;;;;;;;;24.00;40.80;;;;;;491555;240;1107;-75
2022/10/13 06:46:01;;;;;;;;;;;24.00;40.80;;;;;;491471;240;1221;-75
2022/10/13 06:48:03;;;;;;;;;;;24.00;40.80;;;;;;491300;240;1137;-74
2022/10/13 06:50:04;;;;;;;;;;;24.10;40.60;;;;;;491267;240;1216;-74
2022/10/13 06:52:05;;;;;;;;;;;24.10;40.70;;;;;;491384;240;1093;-75
2022/10/13 06:54:07;;;;;;;;;;;24.10;40.60;;;;;;491355;240;1295;-74
2022/10/13 06:56:08;;;;;;;;;;;24.10;40.60;;;;;;491501;240;1158;-74
2022/10/13 06:58:09;;;;;;;;;;;24.20;40.70;;;;;;491517;240;1101;-74
2022/10/13 07:00:11;;;;;;;;;;;24.10;40.70;;;;;;491209;240;2189;-74
2022/10/13 07:02:12;;;;;;;;;;;24.10;40.80;;;;;;491331;240;1144;-75
2022/10/13 07:04:13;;;;;;;;;;;24.20;40.60;;;;;;491300;240;1129;-75
2022/10/13 07:06:15;;;;;;;;;;;24.10;40.80;;;;;;491486;240;1110;-75
2022/10/13 07:08:16;;;;;;;;;;;24.10;41.00;;;;;;491424;240;1103;-75
2022/10/13 07:10:17;;;;;;;;;;;24.00;41.10;;;;;;491553;240;1213;-75
2022/10/13 07:12:19;;;;;;;;;;;24.00;41.10;;;;;;491210;240;1060;-75
2022/10/13 07:14:20;;;;;;;;;;;24.00;41.20;;;;;;491057;240;1101;-75
2022/10/13 07:16:21;;;;;;;;;;;23.90;41.30;;;;;;491297;240;1132;-75
2022/10/13 07:18:23;;;;;;;;;;;23.90;41.40;;;;;;491245;240;1112;-74
2022/10/13 07:20:24;;;;;;;;;;;23.90;41.50;;;;;;491426;240;2192;-74
2022/10/13 07:22:25;;;;;;;;;;;23.90;41.50;;;;;;491441;240;1748;-74
2022/10/13 07:24:27;;;;;;;;;;;23.90;41.70;;;;;;491206;240;1123;-74
2022/10/13 07:26:28;;;;;;;;;;;23.90;41.70;;;;;;491332;240;1145;-74
2022/10/13 07:28:29;;;;;;;;;;;23.90;41.70;;;;;;491018;240;1156;-75
2022/10/13 07:30:31;;;;;;;;;;;23.90;41.80;;;;;;491314;240;1128;-74
2022/10/13 07:32:32;;;;;;;;;;;23.90;41.80;;;;;;491506;240;1182;-74
2022/10/13 07:34:33;;;;;;;;;;;23.80;42.00;;;;;;491316;240;1217;-74
2022/10/13 07:36:35;;;;;;;;;;;23.70;42.20;;;;;;491319;240;1192;-74
2022/10/13 07:38:36;;;;;;;;;;;23.70;42.20;;;;;;491428;240;1145;-74
2022/10/13 07:40:37;;;;;;;;;;;23.70;42.40;;;;;;491200;240;2148;-75
2022/10/13 07:42:39;;;;;;;;;;;23.70;42.40;;;;;;491053;240;1082;-74
2022/10/13 07:44:40;;;;;;;;;;;23.70;42.50;;;;;;490980;240;1257;-74
2022/10/13 07:46:41;;;;;;;;;;;23.70;42.50;;;;;;490943;240;1171;-74
2022/10/13 07:48:43;;;;;;;;;;;23.70;42.60;;;;;;491188;240;1150;-74
2022/10/13 07:50:44;;;;;;;;;;;23.60;42.70;;;;;;491347;240;1105;-75
2022/10/13 07:52:45;;;;;;;;;;;23.60;42.80;;;;;;491347;240;1195;-74
2022/10/13 07:54:47;;;;;;;;;;;23.60;42.90;;;;;;491223;240;1109;-74
2022/10/13 07:56:48;;;;;;;;;;;23.60;42.90;;;;;;491234;240;1226;-74
2022/10/13 07:58:49;;;;;;;;;;;23.50;43.00;;;;;;490890;240;1136;-75
2022/10/13 08:00:51;;;;;;;;;;;23.60;42.90;;;;;;491352;240;2179;-75
2022/10/13 08:50:57;;;;;;;;;;;23.90;43.90;;;;;;490471;242;2164;-74
2022/10/13 08:52:58;;;;;;;;;;;23.90;43.90;;;;;;491786;241;1168;-74
2022/10/13 08:55:00;;;;;;;;;;;24.00;43.90;;;;;;491818;241;1041;-74
2022/10/13 08:57:01;;;;;;;;;;;24.00;43.90;;;;;;491837;241;1060;-74
2022/10/13 08:59:03;;;;;;;;;;;24.00;44.00;;;;;;492005;240;1076;-74
2022/10/13 09:01:04;;;;;;;;;;;24.10;43.90;;;;;;491883;241;2153;-74
2022/10/13 09:03:05;;;;;;;;;;;24.10;43.80;;;;;;491952;241;1103;-74
2022/10/13 09:05:06;;;;;;;;;;;24.20;43.80;;;;;;491773;241;1201;-75
2022/10/13 09:07:08;;;;;;;;;;;24.20;43.90;;;;;;491859;240;1009;-75
2022/10/13 09:09:09;;;;;;;;;;;24.20;43.90;;;;;;492000;241;1049;-74
2022/10/13 09:11:10;;;;;;;;;;;24.20;44.10;;;;;;492013;240;1132;-74
2022/10/13 09:13:12;;;;;;;;;;;24.20;44.10;;;;;;492085;241;1096;-74
2022/10/13 09:15:13;;;;;;;;;;;24.20;44.10;;;;;;491890;240;1017;-74
2022/10/13 09:17:14;;;;;;;;;;;24.20;44.30;;;;;;492009;241;1077;-74
2022/10/13 09:19:16;;;;;;;;;;;24.20;44.50;;;;;;491942;241;1054;-74
2022/10/13 09:21:17;;;;;;;;;;;24.10;44.70;;;;;;492048;240;2192;-74
2022/10/13 09:23:18;;;;;;;;;;;24.00;44.90;;;;;;491941;241;1068;-74
2022/10/13 09:25:20;;;;;;;;;;;24.00;45.20;;;;;;492050;240;1046;-74
2022/10/13 09:27:21;;;;;;;;;;;23.90;45.30;;;;;;491921;241;1082;-74
2022/10/13 09:29:22;;;;;;;;;;;23.90;45.20;;;;;;491868;241;1222;-74
2022/10/13 09:31:24;;;;;;;;;;;23.80;45.40;;;;;;491851;241;1304;-74
2022/10/13 09:33:25;;;;;;;;;;;23.80;45.60;;;;;;492084;241;1224;-75
2022/10/13 09:35:26;;;;;;;;;;;23.70;45.70;;;;;;491841;241;1186;-75
2022/10/13 09:37:28;;;;;;;;;;;23.70;45.80;;;;;;491974;241;1014;-74
2022/10/13 09:39:29;;;;;;;;;;;23.70;45.90;;;;;;491850;240;1026;-74
2022/10/13 09:41:30;;;;;;;;;;;23.60;46.00;;;;;;491836;241;2179;-74
2022/10/13 09:43:32;;;;;;;;;;;23.60;46.10;;;;;;491993;241;1084;-75
2022/10/13 09:45:33;;;;;;;;;;;23.60;46.20;;;;;;491939;241;1065;-75
2022/10/13 09:47:34;;;;;;;;;;;23.60;46.40;;;;;;492087;240;1092;-74
2022/10/13 09:49:36;;;;;;;;;;;23.60;46.40;;;;;;491951;241;1071;-74
2022/10/13 09:51:37;;;;;;;;;;;23.60;46.40;;;;;;492040;240;1191;-74
2022/10/13 09:53:38;;;;;;;;;;;23.60;46.50;;;;;;492049;241;1116;-74
2022/10/13 09:55:39;;;;;;;;;;;23.60;46.60;;;;;;492078;241;1115;-74
2022/10/13 09:57:41;;;;;;;;;;;23.60;46.60;;;;;;491931;241;1066;-74
2022/10/13 09:59:42;;;;;;;;;;;23.60;46.50;;;;;;492074;241;1013;-74
2022/10/13 10:01:43;;;;;;;;;;;23.70;46.40;;;;;;491989;241;2184;-74
2022/10/13 10:03:45;;;;;;;;;;;23.60;46.50;;;;;;492077;241;1069;-75
2022/10/13 10:05:47;;;;;;;;;;;23.70;46.60;;;;;;491997;241;1032;-74
2022/10/13 10:07:47;;;;;;;;;;;23.70;46.50;;;;;;492105;241;1143;-74
2022/10/13 10:09:49;;;;;;;;;;;23.70;46.40;;;;;;491974;241;1130;-74
2022/10/13 10:11:50;;;;;;;;;;;23.80;46.30;;;;;;491997;241;1011;-74
2022/10/13 10:13:52;;;;;;;;;;;23.90;46.10;;;;;;492059;240;1063;-74
2022/10/13 10:15:53;;;;;;;;;;;24.10;45.90;;;;;;491975;241;1065;-74
2022/10/13 10:17:55;;;;;;;;;;;24.10;45.60;;;;;;492058;241;1057;-74
2022/10/13 10:19:56;;;;;;;;;;;24.10;45.50;;;;;;492127;241;1069;-74
2022/10/13 10:22:02;;;;;;;;;;;24.20;45.30;;;;;;492101;241;2149;-75
2022/10/13 10:23:59;;;;;;;;;;;24.30;45.00;;;;;;492197;240;1427;-74
2022/10/13 10:26:00;;;;;;;;;;;24.50;44.90;;;;;;491942;241;1053;-74
2022/10/13 10:28:01;;;;;;;;;;;24.60;44.50;;;;;;491865;240;1038;-75
2022/10/13 10:30:03;;;;;;;;;;;24.60;44.30;;;;;;491982;241;996;-74
2022/10/13 10:32:05;;;;;;;;;;;24.70;44.20;;;;;;491944;240;1359;-74
2022/10/13 10:34:05;;;;;;;;;;;24.80;44.00;;;;;;492159;241;1901;-75
2022/10/13 10:36:07;;;;;;;;;;;24.80;43.80;;;;;;491926;241;1128;-75
2022/10/13 10:38:08;;;;;;;;;;;24.90;43.80;;;;;;491987;241;1067;-75
2022/10/13 10:40:10;;;;;;;;;;;24.90;43.80;;;;;;491905;240;1038;-75
2022/10/13 10:42:11;;;;;;;;;;;24.90;43.70;;;;;;492169;240;2164;-75
2022/10/13 10:44:12;;;;;;;;;;;24.90;43.70;;;;;;491972;241;1131;-75
2022/10/13 10:46:13;;;;;;;;;;;24.80;43.70;;;;;;492095;240;1075;-75
2022/10/13 10:48:15;;;;;;;;;;;24.80;43.70;;;;;;491991;241;1022;-75
2022/10/13 10:50:16;;;;;;;;;;;24.80;43.70;;;;;;492039;241;1049;-75
2022/10/13 10:52:17;;;;;;;;;;;24.70;43.80;;;;;;491852;241;1124;-75
2022/10/13 10:54:19;;;;;;;;;;;24.70;43.80;;;;;;491954;241;1047;-75
2022/10/13 10:56:20;;;;;;;;;;;24.60;43.70;;;;;;492113;241;1126;-75
2022/10/13 10:58:22;;;;;;;;;;;24.70;43.80;;;;;;492045;240;1086;-75
2022/10/13 11:00:23;;;;;;;;;;;24.60;44.00;;;;;;491928;241;1054;-75
2022/10/13 11:02:24;;;;;;;;;;;24.50;44.00;;;;;;491846;240;2203;-75
2022/10/13 11:04:25;;;;;;;;;;;24.50;44.10;;;;;;491973;241;1063;-74
2022/10/13 11:06:27;;;;;;;;;;;24.50;44.20;;;;;;492028;240;1198;-74
2022/10/13 11:08:28;;;;;;;;;;;24.50;44.10;;;;;;492086;241;1042;-75
2022/10/13 11:10:30;;;;;;;;;;;24.40;44.30;;;;;;492025;241;1107;-75
2022/10/13 11:12:31;;;;;;;;;;;24.40;44.50;;;;;;492086;240;1063;-75
2022/10/13 11:14:35;;;;;;;;;;;24.30;44.60;;;;;;491936;241;1063;-75
2022/10/13 11:16:34;;;;;;;;;;;24.30;44.60;;;;;;492104;240;1518;-74
2022/10/13 11:18:35;;;;;;;;;;;24.20;44.60;;;;;;492034;241;953;-74
2022/10/13 11:20:36;;;;;;;;;;;24.20;44.70;;;;;;492172;240;1103;-74
2022/10/13 11:22:38;;;;;;;;;;;24.20;44.70;;;;;;492080;240;2187;-74
2022/10/13 11:24:39;;;;;;;;;;;24.20;44.60;;;;;;491972;241;1111;-74
2022/10/13 11:26:40;;;;;;;;;;;24.10;44.60;;;;;;491888;241;1055;-74
2022/10/13 11:28:42;;;;;;;;;;;24.10;44.80;;;;;;491992;240;1093;-74
2022/10/13 11:30:43;;;;;;;;;;;24.00;44.90;;;;;;491926;240;1255;-74
2022/10/13 11:32:54;;;;;;;;;;;24.00;45.10;;;;;;492006;241;1028;-74
2022/10/13 11:34:46;;;;;;;;;;;24.00;45.00;;;;;;492199;240;1575;-74
2022/10/13 11:36:47;;;;;;;;;;;24.00;44.90;;;;;;491980;241;1169;-74
2022/10/13 11:38:48;;;;;;;;;;;24.00;45.00;;;;;;491900;240;1053;-75
2022/10/13 11:40:50;;;;;;;;;;;24.00;45.00;;;;;;491916;241;1122;-75
2022/10/13 11:42:51;;;;;;;;;;;24.10;45.00;;;;;;491973;240;2168;-74
2022/10/13 11:44:52;;;;;;;;;;;24.00;44.90;;;;;;491890;241;1026;-62
2022/10/13 11:46:54;;;;;;;;;;;23.50;45.70;;;;;;491915;241;1124;-63
2022/10/13 11:48:55;;;;;;;;;;;23.20;46.60;;;;;;491822;241;1006;-62
2022/10/13 11:50:56;;;;;;;;;;;23.00;47.20;;;;;;491846;240;1048;-63
2022/10/13 11:52:58;;;;;;;;;;;23.00;47.30;;;;;;491615;240;1108;-62
2022/10/13 11:54:59;;;;;;;;;;;22.90;47.50;;;;;;491913;240;1112;-63
2022/10/13 11:57:00;;;;;;;;;;;22.80;47.60;;;;;;491629;241;1025;-63
2022/10/13 11:59:02;;;;;;;;;;;22.80;47.70;;;;;;491897;241;1051;-62
2022/10/13 12:01:05;;;;;;;;;;;22.80;47.80;;;;;;491660;240;1059;-63
2022/10/13 12:03:04;;;;;;;;;;;22.80;47.80;;;;;;491890;240;2192;-63
2022/10/13 12:05:06;;;;;;;;;;;22.80;47.70;;;;;;491789;241;1063;-63
2022/10/13 12:07:07;;;;;;;;;;;22.80;47.90;;;;;;491881;240;1053;-62
2022/10/13 12:09:08;;;;;;;;;;;22.80;47.90;;;;;;491931;241;1234;-62
2022/10/13 12:11:10;;;;;;;;;;;22.80;47.80;;;;;;491958;240;1058;-63
2022/10/13 12:13:11;;;;;;;;;;;22.80;47.90;;;;;;491986;240;1066;-62
2022/10/13 12:15:12;;;;;;;;;;;22.80;47.90;;;;;;491816;241;1495;-62
2022/10/13 12:17:13;;;;;;;;;;;22.80;47.90;;;;;;491961;240;1100;-62
2022/10/13 12:19:15;;;;;;;;;;;22.80;48.00;;;;;;491796;241;1235;-63
2022/10/13 12:21:18;;;;;;;;;;;22.80;47.90;;;;;;491897;240;1121;-65
2022/10/13 12:23:18;;;;;;;;;;;22.60;48.30;;;;;;491762;241;2152;-62
2022/10/13 12:25:19;;;;;;;;;;;22.70;48.10;;;;;;491766;241;1083;-63
2022/10/13 12:27:20;;;;;;;;;;;22.70;48.00;;;;;;491625;240;1099;-63
2022/10/13 12:29:22;;;;;;;;;;;22.80;47.90;;;;;;491734;241;1074;-62
2022/10/13 12:31:23;;;;;;;;;;;22.80;47.90;;;;;;491953;240;1047;-62
2022/10/13 12:33:24;;;;;;;;;;;22.70;47.90;;;;;;491853;240;1084;-63
2022/10/13 12:35:26;;;;;;;;;;;22.70;48.00;;;;;;491933;241;1169;-63
2022/10/13 12:37:27;;;;;;;;;;;22.70;47.90;;;;;;492033;240;1646;-63
2022/10/13 12:39:28;;;;;;;;;;;22.80;47.80;;;;;;491957;241;1127;-62
2022/10/13 12:41:30;;;;;;;;;;;22.80;47.90;;;;;;491950;241;1124;-62
2022/10/13 12:43:31;;;;;;;;;;;22.80;47.80;;;;;;491971;240;2160;-61
2022/10/13 12:45:32;;;;;;;;;;;22.80;47.80;;;;;;491921;241;1088;-60